Time;durP1;ratioP1;P1;durP2;ratioP2;P2;SDS_P1;SDS_P2;PMS_P1;PMS_P2;Temp;Humidity;BMP_temperature;BMP_pressure;BME280_temperature;BME280_humidity;BME280_pressure;Samples;Min_cycle;Max_cycle;Signal;HPM_P1;HPM_P2
2023/09/07 00:02:04;;;;;;;;;;;;;;;29.66;40.13;94519.84;4785213;29;7556;-56
2023/09/07 00:04:31;;;;;;;;;;;;;;;29.66;39.78;94516.34;4793784;29;7431;-56
2023/09/07 00:06:57;;;;;;;;;;;;;;;29.65;40.65;94514.81;4767853;30;7289;-56
2023/09/07 00:09:23;;;;;;;;;;;;;;;29.65;40.10;94517.59;4781534;30;9104;-56
2023/09/07 00:11:49;;;;;;;;;;;;;;;29.64;40.58;94518.91;4761776;30;9129;-56
2023/09/07 00:14:17;;;;;;;;;;;;;;;29.64;40.46;94518.91;4767967;30;8847;-56
2023/09/07 00:16:57;;;;;;;;;;;;;;;29.65;39.95;94514.81;4765726;30;9446;-56
2023/09/07 00:19:22;;;;;;;;;;;;;;;29.63;39.92;94512.59;4781032;29;7059;-56
2023/09/07 00:21:55;;;;;;;;;;;;;;;29.63;40.28;94518.13;4818972;29;9321;-56
2023/09/07 00:24:46;;;;;;;;;;;;;;;29.64;39.85;94513.34;4874740;29;7235;-56
2023/09/07 00:27:19;;;;;;;;;;;;;;;29.61;40.06;94511.63;4894456;29;7065;-56
2023/09/07 00:29:53;;;;;;;;;;;;;;;29.59;40.05;94514.94;4948607;28;7042;-56
2023/09/07 00:32:23;;;;;;;;;;;;;;;29.58;39.55;94512.72;4936584;28;7241;-56
2023/09/07 00:35:08;;;;;;;;;;;;;;;29.59;40.15;94506.63;4950762;28;7064;-56
2023/09/07 00:38:08;;;;;;;;;;;;;;;29.57;39.95;94514.00;4923361;28;8291;-56
2023/09/07 00:40:54;;;;;;;;;;;;;;;29.56;39.86;94515.25;4873669;29;7077;-56
2023/09/07 00:43:29;;;;;;;;;;;;;;;29.56;40.15;94509.72;4858823;29;9117;-56
2023/09/07 00:45:57;;;;;;;;;;;;;;;29.57;39.84;94511.22;4859565;29;9133;-56
2023/09/07 00:48:57;;;;;;;;;;;;;;;29.58;40.53;94515.50;4861269;29;9056;-56
2023/09/07 00:51:36;;;;;;;;;;;;;;;29.56;40.55;94515.25;4874540;29;8424;-56
2023/09/07 00:54:13;;;;;;;;;;;;;;;29.55;39.87;94522.09;4860452;29;8379;-56
2023/09/07 00:56:55;;;;;;;;;;;;;;;29.55;39.38;94527.63;4852924;29;9372;-56
2023/09/07 00:59:32;;;;;;;;;;;;;;;29.54;40.15;94526.88;4851723;29;9037;-56
2023/09/07 01:02:22;;;;;;;;;;;;;;;29.55;40.24;94524.88;4866377;29;7089;-56
2023/09/07 01:04:48;;;;;;;;;;;;;;;29.51;39.50;94518.91;4865149;29;6988;-61
2023/09/07 01:07:53;;;;;;;;;;;;;;;29.53;39.45;94519.88;4849519;29;7197;-62
2023/09/07 01:10:21;;;;;;;;;;;;;;;29.52;39.88;94512.81;4821262;29;7323;-61
2023/09/07 01:12:49;;;;;;;;;;;;;;;29.51;39.89;94508.56;4823836;29;8771;-61
2023/09/07 01:15:17;;;;;;;;;;;;;;;29.51;40.10;94516.13;4828301;29;7589;-62
2023/09/07 01:17:56;;;;;;;;;;;;;;;29.50;39.32;94514.63;4875325;29;7604;-62
2023/09/07 01:20:35;;;;;;;;;;;;;;;29.50;39.31;94511.84;4861513;29;7317;-61
2023/09/07 01:23:06;;;;;;;;;;;;;;;29.44;39.51;94508.47;4861737;29;9141;-61
2023/09/07 01:25:34;;;;;;;;;;;;;;;29.44;39.78;94514.00;4864884;29;9382;-62
2023/09/07 01:28:10;;;;;;;;;;;;;;;29.45;39.68;94521.78;4862753;29;9049;-61
2023/09/07 01:30:38;;;;;;;;;;;;;;;29.43;39.28;94513.25;4874437;29;9429;-61
2023/09/07 01:33:15;;;;;;;;;;;;;;;29.44;39.93;94508.47;4860549;29;8419;-61
2023/09/07 01:35:46;;;;;;;;;;;;;;;29.44;39.20;94514.00;4863510;29;9048;-61
2023/09/07 01:38:21;;;;;;;;;;;;;;;29.41;39.17;94513.03;4860492;29;9113;-62
2023/09/07 01:40:48;;;;;;;;;;;;;;;29.37;40.10;94503.53;4876824;29;8880;-61
2023/09/07 01:43:24;;;;;;;;;;;;;;;29.36;40.19;94504.84;4866142;28;7355;-62
2023/09/07 01:45:58;;;;;;;;;;;;;;;29.38;39.53;94508.56;4951563;28;7185;-62
2023/09/07 01:48:36;;;;;;;;;;;;;;;29.37;39.09;94506.31;4935077;28;9741;-61
2023/09/07 01:51:04;;;;;;;;;;;;;;;29.35;39.55;94506.84;4930143;28;9384;-61
2023/09/07 01:53:34;;;;;;;;;;;;;;;29.34;39.83;94507.41;4939829;28;9220;-62
2023/09/07 01:56:09;;;;;;;;;;;;;;;29.34;39.29;94512.94;4935804;28;7267;-62
2023/09/07 01:58:45;;;;;;;;;;;;;;;29.33;39.89;94512.19;4948038;28;7582;-61
2023/09/07 02:01:31;;;;;;;;;;;;;;;29.34;39.69;94505.34;4945500;28;7061;-61
2023/09/07 02:03:59;;;;;;;;;;;;;;;29.33;39.02;94514.97;4939353;28;7310;-61
2023/09/07 02:06:37;;;;;;;;;;;;;;;29.34;39.63;94508.13;4949505;28;6966;-61
2023/09/07 02:09:04;;;;;;;;;;;;;;;29.32;39.25;94502.38;4938057;28;7716;-62
2023/09/07 02:11:45;;;;;;;;;;;;;;;29.33;40.28;94505.91;4930717;28;7103;-61
2023/09/07 02:14:16;;;;;;;;;;;;;;;29.31;38.98;94497.38;4935329;28;7089;-60
2023/09/07 02:17:02;;;;;;;;;;;;;;;29.34;39.93;94504.63;4939895;28;6921;-66
2023/09/07 02:20:00;;;;;;;;;;;;;;;29.34;39.92;94510.91;4953621;28;7197;-66
2023/09/07 02:22:35;;;;;;;;;;;;;;;29.32;38.87;94509.97;4844002;29;6997;-66
2023/09/07 02:25:10;;;;;;;;;;;;;;;29.30;39.17;94509.72;4869930;29;9031;-66
2023/09/07 02:27:38;;;;;;;;;;;;;;;29.30;39.81;94513.25;4872612;29;7301;-66
2023/09/07 02:30:18;;;;;;;;;;;;;;;29.31;38.94;94502.91;4873465;29;7078;-66
2023/09/07 02:32:49;;;;;;;;;;;;;;;29.32;39.25;94501.66;4859959;29;8777;-66
2023/09/07 02:36:04;;;;;;;;;;;;;;;29.31;38.90;94508.47;4844425;29;8726;-66
2023/09/07 02:38:30;;;;;;;;;;;;;;;29.30;39.61;94507.69;4848295;29;9108;-66
2023/09/07 02:40:57;;;;;;;;;;;;;;;29.32;39.24;94498.88;4860222;29;7305;-66
2023/09/07 02:43:24;;;;;;;;;;;;;;;29.31;38.46;94502.91;4857557;29;7094;-66
2023/09/07 02:45:52;;;;;;;;;;;;;;;29.27;39.64;94496.94;4843636;29;7520;-66
2023/09/07 02:48:41;;;;;;;;;;;;;;;29.32;38.74;94502.38;4859371;29;7000;-66
2023/09/07 02:51:07;;;;;;;;;;;;;;;29.32;38.85;94496.09;4859689;29;9934;-66
2023/09/07 02:53:33;;;;;;;;;;;;;;;29.30;38.45;94493.09;4859904;29;8844;-66
2023/09/07 02:56:03;;;;;;;;;;;;;;;29.25;39.22;94489.19;4843499;29;9161;-66
2023/09/07 02:58:33;;;;;;;;;;;;;;;29.29;38.92;94497.16;4901494;28;7273;-66
2023/09/07 03:01:05;;;;;;;;;;;;;;;29.30;38.34;94501.41;4934938;28;8790;-66
2023/09/07 03:03:34;;;;;;;;;;;;;;;29.28;38.90;94492.88;4953531;28;7194;-66
2023/09/07 03:06:08;;;;;;;;;;;;;;;29.30;38.27;94493.84;4945750;28;7351;-66
2023/09/07 03:08:37;;;;;;;;;;;;;;;29.27;39.20;94496.94;4929992;28;9119;-66
2023/09/07 03:11:04;;;;;;;;;;;;;;;29.27;38.36;94502.50;4951337;28;7365;-66
2023/09/07 03:13:31;;;;;;;;;;;;;;;29.24;39.31;94493.22;4930821;28;7544;-66
2023/09/07 03:15:59;;;;;;;;;;;;;;;29.26;38.52;94496.19;4948530;28;7057;-66
2023/09/07 03:18:25;;;;;;;;;;;;;;;29.23;38.33;94491.00;4935351;28;9051;-67
2023/09/07 03:20:54;;;;;;;;;;;;;;;29.24;38.54;94498.00;4952377;28;7169;-67
2023/09/07 03:23:20;;;;;;;;;;;;;;;29.23;38.86;94502.06;4936908;28;8793;-67
2023/09/07 03:25:51;;;;;;;;;;;;;;;29.23;38.33;94502.78;4936185;28;9040;-61
2023/09/07 03:28:17;;;;;;;;;;;;;;;29.24;38.31;94492.47;4928040;29;7324;-61
2023/09/07 03:30:43;;;;;;;;;;;;;;;29.23;39.40;94502.06;4949099;28;9212;-61
2023/09/07 03:33:10;;;;;;;;;;;;;;;29.22;39.42;94506.09;4933445;28;7238;-61
2023/09/07 03:35:38;;;;;;;;;;;;;;;29.21;39.01;94499.09;4946741;28;9234;-61
2023/09/07 03:38:23;;;;;;;;;;;;;;;29.23;38.90;94507.59;4935380;28;9213;-61
2023/09/07 03:41:03;;;;;;;;;;;;;;;29.24;39.57;94512.59;4929696;29;9084;-61
2023/09/07 03:43:54;;;;;;;;;;;;;;;29.24;38.50;94507.06;4950209;28;8173;-61
2023/09/07 03:46:32;;;;;;;;;;;;;;;29.25;39.42;94513.38;4942356;28;7240;-61
2023/09/07 03:49:10;;;;;;;;;;;;;;;29.23;38.75;94513.16;4932666;29;9459;-61
2023/09/07 03:51:45;;;;;;;;;;;;;;;29.18;38.75;94506.44;4948611;28;7367;-62
2023/09/07 03:54:13;;;;;;;;;;;;;;;29.21;39.54;94510.16;4954208;28;9077;-61
2023/09/07 03:56:51;;;;;;;;;;;;;;;29.20;38.64;94508.66;4946892;28;8816;-61
2023/09/07 03:59:49;;;;;;;;;;;;;;;29.23;38.67;94504.84;4934365;28;9183;-62
2023/09/07 04:02:17;;;;;;;;;;;;;;;29.18;39.61;94505.69;4934418;28;8981;-61
2023/09/07 04:04:49;;;;;;;;;;;;;;;29.21;39.45;94505.34;4951231;28;8912;-62
2023/09/07 04:07:26;;;;;;;;;;;;;;;29.18;39.70;94497.38;4927823;28;8236;-62
2023/09/07 04:10:22;;;;;;;;;;;;;;;29.17;39.85;94504.22;4948490;28;7231;-61
2023/09/07 04:12:48;;;;;;;;;;;;;;;29.12;40.27;94503.00;4875465;29;7265;-62
2023/09/07 04:15:15;;;;;;;;;;;;;;;29.13;38.92;94500.94;4873598;29;8847;-61
2023/09/07 04:17:58;;;;;;;;;;;;;;;29.15;40.01;94495.63;4888679;29;6965;-61
2023/09/07 04:20:28;;;;;;;;;;;;;;;29.14;39.26;94508.75;4895499;29;9065;-62
2023/09/07 04:23:24;;;;;;;;;;;;;;;29.14;39.12;94505.97;4882842;29;9529;-61
2023/09/07 04:26:09;;;;;;;;;;;;;;;29.15;39.57;94509.47;4845700;29;7465;-62
2023/09/07 04:28:38;;;;;;;;;;;;;;;29.12;39.40;94514.06;4876442;29;7259;-62
2023/09/07 04:31:18;;;;;;;;;;;;;;;29.12;40.06;94514.06;4863609;29;7336;-61
2023/09/07 04:34:19;;;;;;;;;;;;;;;29.15;39.47;94512.25;4858189;29;9056;-61
2023/09/07 04:37:06;;;;;;;;;;;;;;;29.13;39.20;94515.56;4839987;29;7450;-65
2023/09/07 04:39:41;;;;;;;;;;;;;;;29.12;40.41;94513.31;4841134;29;9118;-65
2023/09/07 04:42:12;;;;;;;;;;;;;;;29.09;40.17;94510.34;4858045;29;9097;-65
2023/09/07 04:44:40;;;;;;;;;;;;;;;29.09;39.32;94510.34;4835763;29;8802;-65
2023/09/07 04:47:21;;;;;;;;;;;;;;;29.05;40.01;94503.63;4858383;29;9141;-65
2023/09/07 04:49:53;;;;;;;;;;;;;;;29.11;39.22;94515.34;4872050;29;7254;-65
2023/09/07 04:52:20;;;;;;;;;;;;;;;29.15;39.66;94512.25;4876636;29;7000;-65
2023/09/07 04:54:47;;;;;;;;;;;;;;;29.14;39.50;94519.06;4874105;29;7566;-65
2023/09/07 04:57:32;;;;;;;;;;;;;;;29.14;39.75;94511.53;4871453;29;9289;-65
2023/09/07 05:00:29;;;;;;;;;;;;;;;29.16;39.21;94510.97;4861503;29;7271;-65
2023/09/07 05:03:04;;;;;;;;;;;;;;;29.14;39.71;94522.59;4852406;29;9567;-65
2023/09/07 05:05:35;;;;;;;;;;;;;;;29.14;39.62;94519.84;4866054;29;6984;-65
2023/09/07 05:08:22;;;;;;;;;;;;;;;29.14;40.08;94516.31;4855194;29;8615;-65
2023/09/07 05:11:03;;;;;;;;;;;;;;;29.15;40.38;94517.78;4861352;29;7027;-65
2023/09/07 05:13:56;;;;;;;;;;;;;;;29.12;40.58;94518.88;4894488;29;7019;-65
2023/09/07 05:16:24;;;;;;;;;;;;;;;29.12;39.67;94518.88;4881330;29;7218;-65
2023/09/07 05:19:09;;;;;;;;;;;;;;;29.15;40.54;94520.56;4897842;29;7241;-65
2023/09/07 05:22:04;;;;;;;;;;;;;;;29.15;40.25;94520.56;4890596;29;7498;-65
2023/09/07 05:24:54;;;;;;;;;;;;;;;29.13;39.59;94521.09;4898901;29;7066;-65
2023/09/07 05:27:53;;;;;;;;;;;;;;;29.10;39.47;94516.63;4906052;29;8755;-65
2023/09/07 05:30:28;;;;;;;;;;;;;;;29.10;40.50;94533.25;4900492;29;9157;-65
2023/09/07 05:33:31;;;;;;;;;;;;;;;29.12;40.33;94524.41;4895168;29;9232;-65
2023/09/07 05:35:57;;;;;;;;;;;;;;;29.12;40.16;94524.41;4895498;29;7227;-64
2023/09/07 05:38:23;;;;;;;;;;;;;;;29.11;40.35;94529.19;4918766;29;8793;-65
2023/09/07 05:40:55;;;;;;;;;;;;;;;29.10;39.85;94527.72;4943569;29;9030;-65
2023/09/07 05:43:21;;;;;;;;;;;;;;;29.12;39.67;94524.41;4950343;29;7807;-65
2023/09/07 05:45:47;;;;;;;;;;;;;;;29.13;39.83;94531.41;4933188;29;7037;-62
2023/09/07 05:48:16;;;;;;;;;;;;;;;29.08;40.41;94528.22;4936967;29;8898;-62
2023/09/07 05:50:45;;;;;;;;;;;;;;;29.09;39.91;94529.72;4944856;29;7243;-62
2023/09/07 05:53:11;;;;;;;;;;;;;;;29.12;40.10;94529.94;4952143;28;7024;-62
2023/09/07 05:56:24;;;;;;;;;;;;;;;29.08;40.17;94536.53;4939375;28;7395;-62
2023/09/07 05:58:51;;;;;;;;;;;;;;;29.09;40.20;94537.28;4873616;29;7231;-62
2023/09/07 06:01:20;;;;;;;;;;;;;;;29.10;40.76;94536.75;4897859;29;7328;-62
2023/09/07 06:03:58;;;;;;;;;;;;;;;29.12;40.27;94536.25;4890716;29;8899;-62
2023/09/07 06:06:24;;;;;;;;;;;;;;;29.10;40.37;94545.06;4892724;29;6987;-62
2023/09/07 06:08:50;;;;;;;;;;;;;;;29.11;40.34;94540.28;4891238;29;6945;-62
2023/09/07 06:11:26;;;;;;;;;;;;;;;29.07;40.24;94540.59;4882219;29;6959;-62
2023/09/07 06:13:54;;;;;;;;;;;;;;;29.06;40.50;94541.84;4896400;29;7292;-62
2023/09/07 06:16:20;;;;;;;;;;;;;;;29.07;40.60;94532.28;4873028;29;7064;-62
2023/09/07 06:18:48;;;;;;;;;;;;;;;29.12;39.84;94539.00;4880145;29;8370;-62
2023/09/07 06:21:15;;;;;;;;;;;;;;;29.10;39.61;94533.25;4880562;29;9239;-62
2023/09/07 06:23:41;;;;;;;;;;;;;;;29.06;40.45;94539.09;4896080;29;7304;-62
2023/09/07 06:26:39;;;;;;;;;;;;;;;29.08;39.69;94535.78;4876047;29;7251;-62
2023/09/07 06:29:16;;;;;;;;;;;;;;;29.10;39.84;94533.25;4860651;29;7262;-62
2023/09/07 06:31:55;;;;;;;;;;;;;;;29.12;40.01;94533.47;4876386;29;6993;-62
2023/09/07 06:34:34;;;;;;;;;;;;;;;29.12;40.60;94535.47;4860310;29;9089;-62
2023/09/07 06:37:11;;;;;;;;;;;;;;;29.10;40.53;94545.06;4879092;29;7107;-62
2023/09/07 06:39:57;;;;;;;;;;;;;;;29.09;39.82;94543.59;4879566;29;9469;-62
2023/09/07 06:42:37;;;;;;;;;;;;;;;29.13;40.54;94548.03;4874719;29;7338;-62
2023/09/07 06:45:14;;;;;;;;;;;;;;;29.14;40.33;94541.25;4887707;29;7298;-62
2023/09/07 06:48:15;;;;;;;;;;;;;;;29.16;39.73;94552.53;4875527;29;9378;-62
2023/09/07 06:51:12;;;;;;;;;;;;;;;29.17;40.57;94548.53;4879585;29;6983;-62
2023/09/07 06:54:07;;;;;;;;;;;;;;;29.18;40.13;94550.00;4895329;29;7281;-62
2023/09/07 06:56:36;;;;;;;;;;;;;;;29.18;40.01;94561.09;4887317;29;8319;-62
2023/09/07 06:59:11;;;;;;;;;;;;;;;29.18;40.93;94552.78;4888920;29;6999;-62
2023/09/07 07:01:54;;;;;;;;;;;;;;;29.16;39.69;94552.53;4903957;29;7051;-62
2023/09/07 07:04:20;;;;;;;;;;;;;;;29.15;40.46;94543.47;4879549;29;7500;-62
2023/09/07 07:06:47;;;;;;;;;;;;;;;29.13;40.51;94559.13;4908334;29;9176;-62
2023/09/07 07:09:43;;;;;;;;;;;;;;;29.13;41.01;94553.59;4916626;29;8718;-62
2023/09/07 07:12:10;;;;;;;;;;;;;;;29.14;41.19;94555.84;4897418;29;7270;-62
2023/09/07 07:14:36;;;;;;;;;;;;;;;29.13;40.89;94548.03;4887598;29;7183;-62
2023/09/07 07:17:04;;;;;;;;;;;;;;;29.14;39.92;94550.31;4878762;29;7395;-62
2023/09/07 07:20:02;;;;;;;;;;;;;;;29.15;40.56;94554.53;4880980;29;8843;-62
2023/09/07 07:22:28;;;;;;;;;;;;;;;29.15;40.70;94549.00;4873800;29;8985;-62
2023/09/07 07:24:55;;;;;;;;;;;;;;;29.15;40.54;94548.25;4876571;29;6968;-62
2023/09/07 07:27:38;;;;;;;;;;;;;;;29.16;40.34;94553.31;4872958;29;7319;-62
2023/09/07 07:30:14;;;;;;;;;;;;;;;29.13;40.38;94550.81;4888925;29;7242;-62
2023/09/07 07:33:17;;;;;;;;;;;;;;;29.14;40.47;94560.63;4901862;29;7351;-62
2023/09/07 07:35:43;;;;;;;;;;;;;;;29.14;41.00;94560.63;4916119;29;9396;-62
2023/09/07 07:38:14;;;;;;;;;;;;;;;29.14;40.87;94557.84;4911559;29;7054;-62
2023/09/07 07:41:00;;;;;;;;;;;;;;;29.15;41.15;94557.31;4918113;29;8723;-62
2023/09/07 07:43:44;;;;;;;;;;;;;;;29.14;40.41;94561.38;4908432;29;7288;-62
2023/09/07 07:46:22;;;;;;;;;;;;;;;29.14;41.13;94560.63;4934656;29;9173;-62
2023/09/07 07:48:58;;;;;;;;;;;;;;;29.15;41.29;94562.84;4935018;28;9436;-63
2023/09/07 07:51:57;;;;;;;;;;;;;;;29.16;40.55;94563.59;4943518;28;7197;-62
2023/09/07 07:54:28;;;;;;;;;;;;;;;29.12;40.80;94557.66;4931532;28;7200;-62
2023/09/07 07:56:54;;;;;;;;;;;;;;;29.15;40.32;94567.66;4951647;28;9490;-62
2023/09/07 07:59:20;;;;;;;;;;;;;;;29.13;40.55;94559.88;4952826;28;7466;-63
2023/09/07 08:01:46;;;;;;;;;;;;;;;29.15;40.50;94553.78;4953304;28;9153;-62
2023/09/07 08:04:19;;;;;;;;;;;;;;;29.16;41.24;94558.06;4953129;28;8749;-57
2023/09/07 08:06:59;;;;;;;;;;;;;;;29.14;41.23;94560.63;4943087;28;7125;-57
2023/09/07 08:09:27;;;;;;;;;;;;;;;29.10;41.20;94545.06;4922474;29;6998;-58
2023/09/07 08:12:25;;;;;;;;;;;;;;;29.15;40.67;94553.78;4954414;28;8809;-58
2023/09/07 08:15:11;;;;;;;;;;;;;;;29.15;41.30;94551.03;4954823;28;7606;-58
2023/09/07 08:17:39;;;;;;;;;;;;;;;29.14;40.72;94553.06;4936432;28;8909;-57
2023/09/07 08:20:07;;;;;;;;;;;;;;;29.16;41.30;94555.31;4935261;28;6998;-57
2023/09/07 08:22:40;;;;;;;;;;;;;;;29.15;40.86;94551.03;4949757;28;8045;-58
2023/09/07 08:25:07;;;;;;;;;;;;;;;29.16;40.62;94552.53;4929809;28;9084;-57
2023/09/07 08:27:43;;;;;;;;;;;;;;;29.12;40.80;94544.53;4933075;29;7347;-58
2023/09/07 08:30:25;;;;;;;;;;;;;;;29.16;41.20;94552.53;4942595;28;7247;-58
2023/09/07 08:32:51;;;;;;;;;;;;;;;29.16;40.68;94558.06;4938322;28;9109;-58
2023/09/07 08:35:27;;;;;;;;;;;;;;;29.16;40.86;94553.31;4950919;28;9038;-58
2023/09/07 08:38:37;;;;;;;;;;;;;;;29.14;41.36;94555.84;4947048;28;7412;-58
2023/09/07 08:41:17;;;;;;;;;;;;;;;29.14;41.15;94555.09;4858801;29;8435;-58
2023/09/07 08:43:55;;;;;;;;;;;;;;;29.16;40.94;94552.53;4856813;29;7426;-58
2023/09/07 08:46:32;;;;;;;;;;;;;;;29.17;40.47;94559.59;4876358;29;7189;-58
2023/09/07 08:49:08;;;;;;;;;;;;;;;29.17;40.59;94559.59;4854759;29;6987;-57
2023/09/07 08:51:46;;;;;;;;;;;;;;;29.17;41.15;94562.38;4864571;29;9086;-58
2023/09/07 08:54:22;;;;;;;;;;;;;;;29.16;41.48;94552.53;4858790;29;7228;-58
2023/09/07 08:57:03;;;;;;;;;;;;;;;29.16;40.76;94545.00;4858422;29;8635;-58
2023/09/07 08:59:30;;;;;;;;;;;;;;;29.17;41.14;94548.53;4844004;29;6987;-58
2023/09/07 09:02:00;;;;;;;;;;;;;;;29.18;41.22;94544.47;4879210;29;7627;-58
2023/09/07 09:04:28;;;;;;;;;;;;;;;29.18;40.53;94561.09;4874629;29;8732;-58
2023/09/07 09:07:27;;;;;;;;;;;;;;;29.20;40.51;94548.19;4852166;29;7260;-58
2023/09/07 09:10:29;;;;;;;;;;;;;;;29.20;41.33;94558.53;4812824;29;7331;-57
2023/09/07 09:13:06;;;;;;;;;;;;;;;29.19;41.29;94551.50;4782264;30;8642;-58
2023/09/07 09:15:32;;;;;;;;;;;;;;;29.20;40.58;94555.75;4767732;30;6959;-56
2023/09/07 09:18:18;;;;;;;;;;;;;;;29.18;41.32;94556.28;4779917;29;7360;-56
2023/09/07 09:21:13;;;;;;;;;;;;;;;29.20;40.82;94553.00;4806909;29;8825;-56
2023/09/07 09:23:44;;;;;;;;;;;;;;;29.18;40.89;94552.78;4816552;29;7585;-56
2023/09/07 09:26:19;;;;;;;;;;;;;;;29.18;41.44;94544.47;4821790;29;7137;-56
2023/09/07 09:28:56;;;;;;;;;;;;;;;29.19;40.71;94549.47;4807918;29;7440;-56
2023/09/07 09:31:38;;;;;;;;;;;;;;;29.18;41.04;94545.22;4825507;29;8976;-56
2023/09/07 09:34:23;;;;;;;;;;;;;;;29.15;41.90;94540.69;4825296;29;9234;-56
2023/09/07 09:37:23;;;;;;;;;;;;;;;29.18;41.32;94550.00;4810095;29;7044;-56
2023/09/07 09:40:00;;;;;;;;;;;;;;;29.16;41.43;94547.78;4810251;29;9452;-56
2023/09/07 09:42:46;;;;;;;;;;;;;;;29.17;41.42;94545.75;4825100;29;7147;-56
2023/09/07 09:45:12;;;;;;;;;;;;;;;29.17;41.22;94543.72;4846120;29;7244;-56
2023/09/07 09:47:42;;;;;;;;;;;;;;;29.19;41.51;94543.19;4891365;28;7246;-56
2023/09/07 09:50:52;;;;;;;;;;;;;;;29.17;42.07;94543.72;4957546;28;7398;-56
2023/09/07 09:53:27;;;;;;;;;;;;;;;29.14;42.02;94541.25;4948122;28;7672;-56
2023/09/07 09:56:16;;;;;;;;;;;;;;;29.17;41.84;94545.75;4953959;28;9168;-56
2023/09/07 09:58:42;;;;;;;;;;;;;;;29.15;41.91;94535.16;4941444;28;9661;-56
2023/09/07 10:01:13;;;;;;;;;;;;;;;29.16;41.17;94531.16;4939388;28;9372;-56
2023/09/07 10:03:50;;;;;;;;;;;;;;;29.18;42.34;94536.16;4947654;28;7260;-56
2023/09/07 10:06:24;;;;;;;;;;;;;;;29.18;41.22;94527.84;4950931;28;7250;-56
2023/09/07 10:09:00;;;;;;;;;;;;;;;29.19;42.20;94540.44;4955188;28;9080;-56
2023/09/07 10:11:53;;;;;;;;;;;;;;;29.17;42.15;94527.09;4952442;28;8685;-56
2023/09/07 10:14:23;;;;;;;;;;;;;;;29.21;41.56;94532.34;4954520;28;9039;-56
2023/09/07 10:17:04;;;;;;;;;;;;;;;29.21;41.80;94529.56;4954739;28;6968;-56
2023/09/07 10:20:07;;;;;;;;;;;;;;;29.25;41.16;94530.00;4943311;28;7006;-56
2023/09/07 10:22:33;;;;;;;;;;;;;;;29.25;42.14;94527.97;4956253;28;9035;-56
2023/09/07 10:25:30;;;;;;;;;;;;;;;29.26;42.37;94520.38;4949854;28;9027;-61
2023/09/07 10:28:24;;;;;;;;;;;;;;;29.29;41.98;94527.63;4944911;28;7242;-61
2023/09/07 10:31:30;;;;;;;;;;;;;;;29.26;42.08;94523.16;4948185;28;8950;-61
2023/09/07 10:34:13;;;;;;;;;;;;;;;29.27;42.22;94522.63;4888575;29;9158;-61
2023/09/07 10:37:13;;;;;;;;;;;;;;;29.26;41.33;94523.91;4864366;29;9046;-60
2023/09/07 10:39:43;;;;;;;;;;;;;;;29.24;42.37;94517.41;4824481;29;7227;-61
2023/09/07 10:42:25;;;;;;;;;;;;;;;29.22;42.39;94517.94;4829789;29;8760;-60
2023/09/07 10:45:10;;;;;;;;;;;;;;;29.20;41.21;94516.97;4833326;29;9236;-61
2023/09/07 10:47:50;;;;;;;;;;;;;;;29.22;41.47;94514.41;4830864;29;8998;-61
2023/09/07 10:50:19;;;;;;;;;;;;;;;29.21;41.75;94516.44;4826629;29;7432;-61
2023/09/07 10:53:03;;;;;;;;;;;;;;;29.21;41.63;94518.47;4832344;29;7214;-61
2023/09/07 10:55:38;;;;;;;;;;;;;;;29.22;41.85;94511.66;4828154;29;9352;-60
2023/09/07 10:58:09;;;;;;;;;;;;;;;29.24;41.25;94511.84;4829327;29;9038;-61
2023/09/07 11:00:45;;;;;;;;;;;;;;;29.24;41.57;94504.31;4826572;29;9244;-61
2023/09/07 11:03:11;;;;;;;;;;;;;;;29.28;42.03;94510.25;4826952;29;7601;-61
2023/09/07 11:05:53;;;;;;;;;;;;;;;29.31;42.03;94505.69;4826942;29;9336;-61
2023/09/07 11:08:29;;;;;;;;;;;;;;;29.35;42.25;94503.34;4840536;29;7224;-61
2023/09/07 11:10:56;;;;;;;;;;;;;;;29.35;42.08;94506.09;4875689;29;7001;-61
2023/09/07 11:13:24;;;;;;;;;;;;;;;29.33;41.31;94503.88;4877244;29;7848;-61
2023/09/07 11:15:56;;;;;;;;;;;;;;;29.34;41.93;94501.88;4888605;28;9207;-60
2023/09/07 11:18:28;;;;;;;;;;;;;;;29.36;42.04;94496.53;4939441;28;6979;-61
2023/09/07 11:21:03;;;;;;;;;;;;;;;29.36;41.75;94496.53;4935170;29;7059;-61
2023/09/07 11:23:38;;;;;;;;;;;;;;;29.36;41.46;94499.31;4951234;28;7722;-61
2023/09/07 11:26:17;;;;;;;;;;;;;;;29.34;42.00;94490.78;4956458;28;8403;-61
2023/09/07 11:28:47;;;;;;;;;;;;;;;29.37;42.13;94495.25;4951053;28;7915;-61
2023/09/07 11:31:18;;;;;;;;;;;;;;;29.39;41.94;94487.88;4946563;28;6972;-61
2023/09/07 11:34:24;;;;;;;;;;;;;;;29.42;41.84;94497.91;4931117;28;7329;-61
2023/09/07 11:36:57;;;;;;;;;;;;;;;29.43;41.83;94493.09;4891623;29;6994;-58
2023/09/07 11:39:55;;;;;;;;;;;;;;;29.42;41.47;94486.81;4875281;29;8751;-58
2023/09/07 11:42:37;;;;;;;;;;;;;;;29.46;42.09;94492.03;4871734;29;7207;-58
2023/09/07 11:45:13;;;;;;;;;;;;;;;29.48;41.46;94484.69;4878184;29;6994;-57
2023/09/07 11:48:28;;;;;;;;;;;;;;;29.49;41.41;94482.66;4862583;29;7231;-58
2023/09/07 11:51:09;;;;;;;;;;;;;;;29.51;41.71;94486.41;4876555;29;7275;-58
2023/09/07 11:53:45;;;;;;;;;;;;;;;29.52;41.92;94490.66;4872410;29;9231;-57
2023/09/07 11:56:14;;;;;;;;;;;;;;;29.53;41.74;94481.06;4868564;29;9084;-57
2023/09/07 11:59:11;;;;;;;;;;;;;;;29.54;42.05;94479.00;4862870;29;8809;-58
2023/09/07 12:02:03;;;;;;;;;;;;;;;29.53;42.26;94485.84;4814465;29;7198;-58
2023/09/07 12:04:29;;;;;;;;;;;;;;;29.54;40.99;94484.56;4805295;29;7189;-58
2023/09/07 12:06:56;;;;;;;;;;;;;;;29.54;42.26;94482.53;4778680;29;7228;-57
2023/09/07 12:09:22;;;;;;;;;;;;;;;29.55;41.50;94484.03;4790357;29;9094;-58
2023/09/07 12:11:51;;;;;;;;;;;;;;;29.58;42.12;94476.69;4848664;29;9264;-57
2023/09/07 12:14:20;;;;;;;;;;;;;;;29.57;40.96;94478.72;4840505;29;6866;-57
2023/09/07 12:16:46;;;;;;;;;;;;;;;29.56;42.08;94474.44;4856551;29;8762;-58
2023/09/07 12:19:16;;;;;;;;;;;;;;;29.61;42.23;94481.16;4856590;29;7510;-58
2023/09/07 12:21:47;;;;;;;;;;;;;;;29.63;41.43;94475.81;4857900;29;7051;-58
2023/09/07 12:24:12;;;;;;;;;;;;;;;29.65;42.21;94470.47;4856912;29;7174;-57
2023/09/07 12:26:38;;;;;;;;;;;;;;;29.66;41.32;94469.97;4840097;29;7055;-58
2023/09/07 12:29:05;;;;;;;;;;;;;;;29.68;41.87;94463.88;4856342;29;8704;-57
2023/09/07 12:31:33;;;;;;;;;;;;;;;29.74;41.59;94470.06;4857302;29;8665;-58
2023/09/07 12:34:02;;;;;;;;;;;;;;;29.77;41.17;94460.69;4851366;29;7714;-57
2023/09/07 12:37:06;;;;;;;;;;;;;;;29.78;41.70;94467.69;4856558;29;7246;-58
2023/09/07 12:39:42;;;;;;;;;;;;;;;29.77;41.86;94455.13;4951207;28;7222;-57
2023/09/07 12:42:14;;;;;;;;;;;;;;;29.76;41.63;94459.19;4933257;29;8779;-58
2023/09/07 12:44:50;;;;;;;;;;;;;;;29.75;41.57;94455.66;4949877;28;7222;-68
2023/09/07 12:47:27;;;;;;;;;;;;;;;29.74;41.42;94458.97;4948365;28;7341;-68
2023/09/07 12:49:53;;;;;;;;;;;;;;;29.76;42.05;94465.47;4935858;28;9097;-67
2023/09/07 12:52:19;;;;;;;;;;;;;;;29.77;41.06;94450.34;4951702;28;7002;-68
2023/09/07 12:54:48;;;;;;;;;;;;;;;29.77;41.86;94457.91;4949489;28;7241;-68
2023/09/07 12:57:16;;;;;;;;;;;;;;;29.78;41.55;94456.59;4952990;29;6967;-67
2023/09/07 12:59:46;;;;;;;;;;;;;;;29.79;41.93;94461.63;4928552;29;7598;-68
2023/09/07 13:02:19;;;;;;;;;;;;;;;29.79;42.23;94458.88;4949406;29;9413;-68
2023/09/07 13:04:49;;;;;;;;;;;;;;;29.81;41.59;94452.78;4938701;28;8973;-68
2023/09/07 13:07:17;;;;;;;;;;;;;;;29.82;42.20;94450.75;4957035;28;8815;-68
2023/09/07 13:09:50;;;;;;;;;;;;;;;29.85;41.81;94458.72;4931764;28;8821;-67
2023/09/07 13:12:19;;;;;;;;;;;;;;;29.87;41.77;94455.41;4948574;28;8753;-67
2023/09/07 13:14:48;;;;;;;;;;;;;;;29.87;42.22;94445.06;4956135;28;9279;-68
2023/09/07 13:17:14;;;;;;;;;;;;;;;29.89;41.80;94453.59;4955333;28;7899;-68
2023/09/07 13:19:41;;;;;;;;;;;;;;;29.91;42.27;94456.56;4922686;28;7493;-68
2023/09/07 13:22:10;;;;;;;;;;;;;;;29.92;41.59;94449.75;4943302;28;7484;-68
2023/09/07 13:24:43;;;;;;;;;;;;;;;29.94;42.30;94449.97;4924101;28;8888;-68
2023/09/07 13:27:29;;;;;;;;;;;;;;;29.95;41.30;94445.88;4926710;28;7298;-68
2023/09/07 13:30:03;;;;;;;;;;;;;;;29.95;41.35;94442.41;4936724;29;7206;-68
2023/09/07 13:32:41;;;;;;;;;;;;;;;29.99;41.29;94434.47;4953840;28;7287;-68
2023/09/07 13:35:36;;;;;;;;;;;;;;;30.00;41.13;94431.16;4941383;28;9070;-68
2023/09/07 13:38:10;;;;;;;;;;;;;;;30.00;42.15;94427.63;4932132;28;7185;-68
2023/09/07 13:40:57;;;;;;;;;;;;;;;30.02;41.83;94428.59;4955825;28;9445;-68
2023/09/07 13:43:35;;;;;;;;;;;;;;;30.05;42.42;94433.06;4957297;28;8900;-68
2023/09/07 13:46:12;;;;;;;;;;;;;;;30.08;42.36;94434.75;4948133;28;9284;-68
2023/09/07 13:49:15;;;;;;;;;;;;;;;30.10;42.03;94426.63;4945067;28;9520;-68